If you wish to contribute or participate in the discussions about articles you are invited to join SKYbrary as a registered user

 Actions

Nevers-Fourchambault Airport

From SKYbrary Wiki

LFQG
Airport
ICAO: LFQG – IATA: NVS
Summary
Name Nevers-Fourchambault Airport
Region Europe
Territory France FR.gif
Location , Bourgogne
Serving Nevers
Elevation 183.49 m
602 ft
602 ft183.49 m
Type medium airport
Coordinates 47° 0' 9.45" N, 3° 6' 48.00" E
Runways
Designator Length Width Surface ROPS
12/30 1630 m5,347.769 ft
30 m98.425 ft
ASP /


METAR
Observation LFQG 250900Z AUTO 01004KT 340V040 9999 FEW009/// BKN052/// BKN078/// ///TCU 15/13 Q1019
Station Nevers
Date/Time 25 May 2019 09:00:00
Wind direction 10°
Wind speed 04 kts
Lowest cloud amount few clouds
Temperature 15°C
Dew point 13°C
Humidity 87%
QNH 1019 hPa
Weather condition n/a